Time;durP1;ratioP1;P1;durP2;ratioP2;P2;SDS_P1;SDS_P2;PMS_P1;PMS_P2;Temp;Humidity;BMP_temperature;BMP_pressure;BME280_temperature;BME280_humidity;BME280_pressure;Samples;Min_cycle;Max_cycle;Signal;HPM_P1;HPM_P2
2023/03/27 00:04:14;;;;;;;;;;;;;;;3.98;81.91211;101686.1;;;;-74
2023/03/27 00:09:10;;;;;;;;;;;;;;;3.88;81.88184;101689.2;;;;-75
2023/03/27 00:14:13;;;;;;;;;;;;;;;3.84;81.64648;101692.3;;;;-75
2023/03/27 00:15:22;;;;;;;2.6;0.5;;;;;;;;;;;;;-74
2023/03/27 00:19:10;;;;;;;;;;;;;;;3.85;81.94238;101703.6;;;;-75
2023/03/27 00:24:14;;;;;;;;;;;;;;;3.82;81.82617;101711.6;;;;-74
2023/03/27 00:29:12;;;;;;;;;;;;;;;3.82;81.63086;101719.6;;;;-74
2023/03/27 00:34:10;;;;;;;;;;;;;;;3.78;81.52539;101723;;;;-75
2023/03/27 00:39:10;;;;;;;;;;;;;;;3.75;81.85645;101729.1;;;;-74
2023/03/27 00:44:23;;;;;;;;;;;;;;;3.74;81.91992;101736.3;;;;-75
2023/03/27 00:45:27;;;;;;;1.5;0.5;;;;;;;;;;;;;-74
2023/03/27 00:49:13;;;;;;;;;;;;;;;3.67;81.81152;101740.3;;;;-75
2023/03/27 00:54:11;;;;;;;;;;;;;;;3.63;81.8125;101747.9;;;;-75
2023/03/27 00:59:13;;;;;;;;;;;;;;;3.56;81.99609;101749.9;;;;-75
2023/03/27 01:04:11;;;;;;;;;;;;;;;3.52;82.03223;101756.9;;;;-74
2023/03/27 01:09:14;;;;;;;;;;;;;;;3.45;82.08398;101759.7;;;;-74
2023/03/27 01:14:18;;;;;;;;;;;;;;;3.42;82.08789;101759.5;;;;-73
2023/03/27 01:15:26;;;;;;;2.5;0.4;;;;;;;;;;;;;-75
2023/03/27 01:19:20;;;;;;;;;;;;;;;3.33;82.21289;101764.1;;;;-75
2023/03/27 01:24:35;;;;;;;;;;;;;;;3.29;82.22461;101762.3;;;;-75
2023/03/27 01:29:14;;;;;;;;;;;;;;;3.3;82.5;101762.3;;;;-75
2023/03/27 01:34:21;;;;;;;;;;;;;;;3.16;82.03711;101768.5;;;;-76
2023/03/27 01:39:30;;;;;;;;;;;;;;;3.13;82.54492;101771.8;;;;-74
2023/03/27 01:44:15;;;;;;;;;;;;;;;3.04;82.43848;101783.1;;;;-75
2023/03/27 01:45:22;;;;;;;1;0.4;;;;;;;;;;;;;-75
2023/03/27 01:49:15;;;;;;;;;;;;;;;3.02;82.48047;101790.8;;;;-75
2023/03/27 01:54:17;;;;;;;;;;;;;;;3.03;82.45801;101789.8;;;;-75
2023/03/27 01:59:15;;;;;;;;;;;;;;;2.91;82.46875;101788.5;;;;-74
2023/03/27 02:04:18;;;;;;;;;;;;;;;2.85;82.31836;101797.6;;;;-75
2023/03/27 02:09:13;;;;;;;;;;;;;;;2.82;82.70215;101799.8;;;;-75
2023/03/27 02:14:15;;;;;;;;;;;;;;;2.77;82.8457;101810.6;;;;-75
2023/03/27 02:15:22;;;;;;;2.8;0.5;;;;;;;;;;;;;-74
2023/03/27 02:19:13;;;;;;;;;;;;;;;2.74;82.4043;101818.7;;;;-74
2023/03/27 02:24:11;;;;;;;;;;;;;;;2.68;82.72852;101827;;;;-75
2023/03/27 02:29:30;;;;;;;;;;;;;;;2.61;82.51953;101831.7;;;;-74
2023/03/27 02:34:23;;;;;;;;;;;;;;;2.61;82.57324;101831;;;;-76
2023/03/27 02:39:17;;;;;;;;;;;;;;;2.65;82.7666;101829;;;;-75
2023/03/27 02:44:18;;;;;;;;;;;;;;;2.59;82.37695;101841.6;;;;-75
2023/03/27 02:45:27;;;;;;;1.9;0.5;;;;;;;;;;;;;-75
2023/03/27 02:49:13;;;;;;;;;;;;;;;2.59;82.55762;101849.5;;;;-75
2023/03/27 02:54:12;;;;;;;;;;;;;;;2.52;82.55762;101854.7;;;;-76
2023/03/27 02:59:13;;;;;;;;;;;;;;;2.55;82.82324;101861.9;;;;-75
2023/03/27 03:04:12;;;;;;;;;;;;;;;2.57;82.7207;101860.3;;;;-75
2023/03/27 03:09:14;;;;;;;;;;;;;;;2.59;82.83008;101877;;;;-74
2023/03/27 03:14:13;;;;;;;;;;;;;;;2.52;82.75195;101878.2;;;;-75
2023/03/27 03:15:19;;;;;;;1.6;0.4;;;;;;;;;;;;;-75
2023/03/27 03:19:11;;;;;;;;;;;;;;;2.52;82.75293;101889.9;;;;-74
2023/03/27 03:24:26;;;;;;;;;;;;;;;2.54;82.70215;101891.9;;;;-76
2023/03/27 03:29:13;;;;;;;;;;;;;;;2.41;82.66699;101895;;;;-75
2023/03/27 03:34:10;;;;;;;;;;;;;;;2.46;82.77344;101914.1;;;;-75
2023/03/27 03:39:15;;;;;;;;;;;;;;;2.47;82.90527;101924;;;;-76
2023/03/27 03:44:10;;;;;;;;;;;;;;;2.45;83.27051;101947.6;;;;-75
2023/03/27 03:45:22;;;;;;;1.1;0.4;;;;;;;;;;;;;-73
2023/03/27 03:49:14;;;;;;;;;;;;;;;2.51;83.15137;101932.5;;;;-75
2023/03/27 03:54:10;;;;;;;;;;;;;;;2.51;82.95605;101940;;;;-74
2023/03/27 03:59:10;;;;;;;;;;;;;;;2.48;83.12598;101937.1;;;;-75
2023/03/27 04:04:10;;;;;;;;;;;;;;;2.47;82.78613;101946.9;;;;-75
2023/03/27 04:09:10;;;;;;;;;;;;;;;2.4;82.87109;101943.1;;;;-75
2023/03/27 04:14:22;;;;;;;;;;;;;;;2.31;82.75488;101942.4;;;;-75
2023/03/27 04:23:37;;;;;;;;;;;;;;;2.24;82.77441;101943.7;;;;-75
2023/03/27 04:28:37;;;;;;;;;;;;;;;2.18;82.81641;101956.1;;;;-74
2023/03/27 04:33:38;;;;;;;;;;;;;;;2.09;82.86426;101964;;;;-75
2023/03/27 04:38:41;;;;;;;;;;;;;;;2.03;82.84277;101970.7;;;;-75
2023/03/27 04:43:42;;;;;;;;;;;;;;;1.95;82.79395;101972.8;;;;-76
2023/03/27 04:45:31;;;;;;;1.5;0.4;;;;;;;;;;;;;-75
2023/03/27 04:48:37;;;;;;;;;;;;;;;1.87;83.0166;101975;;;;-76
2023/03/27 04:53:36;;;;;;;;;;;;;;;1.82;83.02832;101972.4;;;;-75
2023/03/27 04:58:36;;;;;;;;;;;;;;;1.7;82.91895;101974.1;;;;-75
2023/03/27 05:03:39;;;;;;;;;;;;;;;1.62;83.14258;101981.1;;;;-76
2023/03/27 05:08:36;;;;;;;;;;;;;;;1.63;82.95996;101980.8;;;;-75
2023/03/27 05:13:36;;;;;;;;;;;;;;;1.56;83.09766;101993.5;;;;-75
2023/03/27 05:15:18;;;;;;;3;0.4;;;;;;;;;;;;;-75
2023/03/27 05:18:37;;;;;;;;;;;;;;;1.59;82.92969;101995.2;;;;-76
2023/03/27 05:23:36;;;;;;;;;;;;;;;1.66;83.13867;101998.8;;;;-74
2023/03/27 05:28:38;;;;;;;;;;;;;;;1.72;82.96582;102003.2;;;;-75
2023/03/27 05:33:36;;;;;;;;;;;;;;;1.75;83.03711;102003.9;;;;-75
2023/03/27 05:38:36;;;;;;;;;;;;;;;1.82;83.22266;102009;;;;-75
2023/03/27 05:43:39;;;;;;;;;;;;;;;1.9;83.08691;102012.4;;;;-75
2023/03/27 05:45:18;;;;;;;3.4;0.7;;;;;;;;;;;;;-75
2023/03/27 05:48:42;;;;;;;;;;;;;;;1.96;82.93652;102018;;;;-76
2023/03/27 05:53:42;;;;;;;;;;;;;;;1.98;83.03809;102016;;;;-75
2023/03/27 05:58:38;;;;;;;;;;;;;;;2.01;83.11035;102023.8;;;;-75
2023/03/27 06:03:37;;;;;;;;;;;;;;;2.02;83.03613;102033.8;;;;-75
2023/03/27 06:08:39;;;;;;;;;;;;;;;2.07;82.94727;102042.2;;;;-75
2023/03/27 06:13:36;;;;;;;;;;;;;;;2.15;83.13672;102050.4;;;;-76
2023/03/27 06:15:23;;;;;;;3.6;0.5;;;;;;;;;;;;;-76
2023/03/27 06:18:47;;;;;;;;;;;;;;;2.38;82.7793;102046.5;;;;-76
2023/03/27 06:23:38;;;;;;;;;;;;;;;2.41;82.67773;102058.8;;;;-74
2023/03/27 06:28:37;;;;;;;;;;;;;;;2.44;82.67188;102070.8;;;;-75
2023/03/27 06:33:38;;;;;;;;;;;;;;;2.47;82.44922;102079.6;;;;-76
2023/03/27 06:38:36;;;;;;;;;;;;;;;2.53;82.44043;102089.1;;;;-75
2023/03/27 06:43:38;;;;;;;;;;;;;;;2.76;82.67969;102097.4;;;;-76
2023/03/27 06:45:23;;;;;;;3.2;0.4;;;;;;;;;;;;;-75
2023/03/27 06:48:39;;;;;;;;;;;;;;;3.04;82.00586;102100.9;;;;-75
2023/03/27 06:53:36;;;;;;;;;;;;;;;3.32;80.55664;102113.6;;;;-75
2023/03/27 06:58:36;;;;;;;;;;;;;;;3.54;80.86035;102123.8;;;;-75
2023/03/27 07:03:38;;;;;;;;;;;;;;;3.87;81.44629;102142.3;;;;-76
2023/03/27 07:08:36;;;;;;;;;;;;;;;4.09;80.88672;102143.1;;;;-75
2023/03/27 07:13:37;;;;;;;;;;;;;;;4.12;81.10059;102152.4;;;;-75
2023/03/27 07:15:18;;;;;;;1.5;0.4;;;;;;;;;;;;;-75
2023/03/27 07:18:38;;;;;;;;;;;;;;;4.18;80.64258;102155.1;;;;-75
2023/03/27 07:23:38;;;;;;;;;;;;;;;4.34;80.30273;102158;;;;-75
2023/03/27 07:28:41;;;;;;;;;;;;;;;4.56;80.23438;102158.5;;;;-74
2023/03/27 07:33:40;;;;;;;;;;;;;;;4.84;79.30176;102168.8;;;;-76
2023/03/27 07:38:40;;;;;;;;;;;;;;;5.12;78.64453;102176.3;;;;-75
2023/03/27 07:43:38;;;;;;;;;;;;;;;5.47;78.27051;102175.8;;;;-76
2023/03/27 07:45:17;;;;;;;2.8;0.5;;;;;;;;;;;;;-74
2023/03/27 07:48:37;;;;;;;;;;;;;;;5.78;77.78809;102176.2;;;;-74
2023/03/27 07:53:36;;;;;;;;;;;;;;;6.13;77.64355;102179.5;;;;-76
2023/03/27 07:58:36;;;;;;;;;;;;;;;6.54;78.15723;102186.1;;;;-75
2023/03/27 08:03:40;;;;;;;;;;;;;;;7.03;77.27832;102185.9;;;;-74
2023/03/27 08:08:36;;;;;;;;;;;;;;;7.62;74.83105;102177.1;;;;-76
2023/03/27 08:13:36;;;;;;;;;;;;;;;7.76;75.07617;102174.8;;;;-75
2023/03/27 08:15:17;;;;;;;2.2;0.5;;;;;;;;;;;;;-75
2023/03/27 08:18:36;;;;;;;;;;;;;;;8.23;74.15332;102178.5;;;;-74
2023/03/27 08:23:36;;;;;;;;;;;;;;;8.35;72.14355;102222.8;;;;-75
2023/03/27 08:28:39;;;;;;;;;;;;;;;7.74;73.63965;102224.6;;;;-75
2023/03/27 08:33:36;;;;;;;;;;;;;;;7.22;73.23242;102231.7;;;;-75
2023/03/27 08:38:40;;;;;;;;;;;;;;;6.75;75.49414;102243;;;;-75
2023/03/27 08:43:38;;;;;;;;;;;;;;;6.62;75.21875;102243.9;;;;-73
2023/03/27 08:45:21;;;;;;;2.7;0.6;;;;;;;;;;;;;-75
2023/03/27 08:48:38;;;;;;;;;;;;;;;7.07;76.86719;102246;;;;-74
2023/03/27 08:53:39;;;;;;;;;;;;;;;7.88;75.39258;102245.8;;;;-75
2023/03/27 08:58:36;;;;;;;;;;;;;;;8.59;73.83887;102247;;;;-74
2023/03/27 09:03:39;;;;;;;;;;;;;;;9.08;72.54199;102252.6;;;;-74
2023/03/27 09:08:48;;;;;;;;;;;;;;;9.47;71.82031;102251.3;;;;-75
2023/03/27 09:13:41;;;;;;;;;;;;;;;9.78;71.31738;102263;;;;-75
2023/03/27 09:15:20;;;;;;;2.6;0.5;;;;;;;;;;;;;-75
2023/03/27 09:18:39;;;;;;;;;;;;;;;10.21;70.17871;102260.4;;;;-75
2023/03/27 09:23:40;;;;;;;;;;;;;;;10.44;69.68359;102260;;;;-75
2023/03/27 09:28:44;;;;;;;;;;;;;;;10.7;69.36035;102260.1;;;;-76
2023/03/27 09:33:40;;;;;;;;;;;;;;;10.93;68.79688;102258.7;;;;-74
2023/03/27 09:38:40;;;;;;;;;;;;;;;10.82;68.17773;102260.4;;;;-74
2023/03/27 09:43:42;;;;;;;;;;;;;;;10.93;67.56152;102265;;;;-74
2023/03/27 09:45:19;;;;;;;2.4;0.5;;;;;;;;;;;;;-74
2023/03/27 09:48:38;;;;;;;;;;;;;;;11.1;66.33301;102265.2;;;;-75
2023/03/27 09:53:38;;;;;;;;;;;;;;;11.3;66.22949;102260.9;;;;-74
2023/03/27 09:58:40;;;;;;;;;;;;;;;11.28;64.34375;102270.6;;;;-71
2023/03/27 10:03:39;;;;;;;;;;;;;;;11.28;65.43555;102272.4;;;;-74
2023/03/27 10:08:40;;;;;;;;;;;;;;;11.3;63.74609;102281.9;;;;-74
2023/03/27 10:13:46;;;;;;;;;;;;;;;11.5;63.07227;102283.2;;;;-74
2023/03/27 10:15:37;;;;;;;3.6;0.6;;;;;;;;;;;;;-75
2023/03/27 10:18:37;;;;;;;;;;;;;;;11.75;63.2207;102284.5;;;;-75
2023/03/27 10:23:43;;;;;;;;;;;;;;;11.68;60.57813;102291.9;;;;-74
2023/03/27 10:28:37;;;;;;;;;;;;;;;11.42;62.25977;102317.8;;;;-74
2023/03/27 10:33:40;;;;;;;;;;;;;;;10.98;64.94531;102317;;;;-74
2023/03/27 10:38:39;;;;;;;;;;;;;;;10.46;64.2998;102323.8;;;;-74
2023/03/27 10:43:40;;;;;;;;;;;;;;;10.37;64.69727;102327.5;;;;-73
2023/03/27 10:45:23;;;;;;;4.4;0.7;;;;;;;;;;;;;-73
2023/03/27 10:48:51;;;;;;;;;;;;;;;10.51;65.96387;102330.9;;;;-74
2023/03/27 10:53:40;;;;;;;;;;;;;;;10.37;66.43164;102328;;;;-74
2023/03/27 10:58:42;;;;;;;;;;;;;;;10.34;65.32813;102329.4;;;;-74
2023/03/27 11:03:39;;;;;;;;;;;;;;;10.81;68.44336;102325.6;;;;-75
2023/03/27 11:08:41;;;;;;;;;;;;;;;11.27;68.61426;102337.6;;;;-74
2023/03/27 11:13:37;;;;;;;;;;;;;;;11.57;67.68359;102342;;;;-74
2023/03/27 11:15:25;;;;;;;4.1;0.7;;;;;;;;;;;;;-74
2023/03/27 11:18:44;;;;;;;;;;;;;;;11.83;67.17676;102364.3;;;;-74
2023/03/27 11:23:39;;;;;;;;;;;;;;;11.54;64.28223;102390.1;;;;-74
2023/03/27 11:28:42;;;;;;;;;;;;;;;10.81;65.20898;102417.9;;;;-74
2023/03/27 11:33:40;;;;;;;;;;;;;;;10.19;67.48242;102424.9;;;;-74
2023/03/27 11:38:39;;;;;;;;;;;;;;;9.82;68.33398;102426.9;;;;-75
2023/03/27 11:43:37;;;;;;;;;;;;;;;9.72;70.04492;102430.5;;;;-76
2023/03/27 11:45:27;;;;;;;2.7;0.5;;;;;;;;;;;;;-76
2023/03/27 11:48:47;;;;;;;;;;;;;;;9.88;66.83398;102419.4;;;;-77
2023/03/27 11:53:47;;;;;;;;;;;;;;;9.97;66.60352;102420.1;;;;-74
2023/03/27 11:58:38;;;;;;;;;;;;;;;10.13;71.51953;102416.5;;;;-75
2023/03/27 12:03:44;;;;;;;;;;;;;;;10.4;72.45117;102405.4;;;;-75
2023/03/27 12:08:44;;;;;;;;;;;;;;;10.75;73.60742;102404.1;;;;-75
2023/03/27 12:13:52;;;;;;;;;;;;;;;11.17;74.0332;102408.6;;;;-75
2023/03/27 12:15:42;;;;;;;4.4;0.7;;;;;;;;;;;;;-75
2023/03/27 12:18:45;;;;;;;;;;;;;;;11.37;73.39941;102403.9;;;;-75
2023/03/27 12:23:46;;;;;;;;;;;;;;;11.59;72.31445;102406.9;;;;-74
2023/03/27 12:28:43;;;;;;;;;;;;;;;11.52;70.99219;102421.8;;;;-75
2023/03/27 12:33:51;;;;;;;;;;;;;;;11.06;69.77246;102440.6;;;;-74
2023/03/27 12:38:39;;;;;;;;;;;;;;;10.55;69.80176;102433.7;;;;-74
2023/03/27 12:43:39;;;;;;;;;;;;;;;10.06;70.34473;102429.8;;;;-74
2023/03/27 12:45:29;;;;;;;4.4;0.8;;;;;;;;;;;;;-75
2023/03/27 12:48:36;;;;;;;;;;;;;;;9.76;71.28125;102426.4;;;;-74
2023/03/27 12:53:50;;;;;;;;;;;;;;;9.71;71.42773;102431.6;;;;-74
2023/03/27 12:58:37;;;;;;;;;;;;;;;9.53;71.2666;102426.5;;;;-73
2023/03/27 13:03:46;;;;;;;;;;;;;;;9.81;70.96777;102423.1;;;;-74
2023/03/27 13:08:49;;;;;;;;;;;;;;;10.33;70.49902;102430.8;;;;-73
2023/03/27 13:13:48;;;;;;;;;;;;;;;10.63;70.94727;102423.6;;;;-73
2023/03/27 13:15:39;;;;;;;3.4;0.6;;;;;;;;;;;;;-75
2023/03/27 13:18:47;;;;;;;;;;;;;;;10.92;72.58105;102418.7;;;;-74
2023/03/27 13:23:44;;;;;;;;;;;;;;;11;72.4834;102429.8;;;;-75
2023/03/27 13:28:38;;;;;;;;;;;;;;;10.74;72.61816;102421;;;;-72
2023/03/27 13:33:47;;;;;;;;;;;;;;;10.53;71.15332;102421.4;;;;-74
2023/03/27 13:38:48;;;;;;;;;;;;;;;10.87;70.29688;102424.6;;;;-74
2023/03/27 13:43:37;;;;;;;;;;;;;;;11.22;69.59668;102432.9;;;;-74
2023/03/27 13:45:32;;;;;;;5.4;0.7;;;;;;;;;;;;;-73
2023/03/27 13:48:49;;;;;;;;;;;;;;;11.61;67.64453;102435.2;;;;-74
2023/03/27 13:53:46;;;;;;;;;;;;;;;11.16;67.56445;102442;;;;-74
2023/03/27 13:58:46;;;;;;;;;;;;;;;11.06;68.30371;102446.7;;;;-74
2023/03/27 14:03:58;;;;;;;;;;;;;;;11.09;67.91992;102446.4;;;;-74
2023/03/27 14:08:43;;;;;;;;;;;;;;;11.08;68.09668;102453.2;;;;-75
2023/03/27 14:13:45;;;;;;;;;;;;;;;11.21;67.61621;102456.7;;;;-74
2023/03/27 14:15:43;;;;;;;2.8;0.7;;;;;;;;;;;;;-75
2023/03/27 14:18:51;;;;;;;;;;;;;;;11.41;67.53613;102453.7;;;;-74
2023/03/27 14:23:39;;;;;;;;;;;;;;;11.48;67.29102;102458.4;;;;-75
2023/03/27 14:28:37;;;;;;;;;;;;;;;11.38;67.94336;102454.1;;;;-73
2023/03/27 14:33:43;;;;;;;;;;;;;;;11.46;67.45508;102465.2;;;;-75
2023/03/27 14:38:38;;;;;;;;;;;;;;;11.4;69.71484;102464.6;;;;-74
2023/03/27 14:43:39;;;;;;;;;;;;;;;11.61;69.84863;102476.6;;;;-74
2023/03/27 14:45:35;;;;;;;6.8;1;;;;;;;;;;;;;-74
2023/03/27 14:48:38;;;;;;;;;;;;;;;11.58;68.26367;102474.1;;;;-74
2023/03/27 14:53:43;;;;;;;;;;;;;;;11.25;67.41211;102483.2;;;;-73
2023/03/27 14:58:36;;;;;;;;;;;;;;;10.93;67.3291;102485.9;;;;-74
2023/03/27 15:03:40;;;;;;;;;;;;;;;10.76;67.5791;102493.3;;;;-74
2023/03/27 15:08:37;;;;;;;;;;;;;;;10.77;67.04883;102498.8;;;;-75
2023/03/27 15:13:39;;;;;;;;;;;;;;;10.94;68.09766;102499.6;;;;-74
2023/03/27 15:15:41;;;;;;;5.1;0.8;;;;;;;;;;;;;-74
2023/03/27 15:18:38;;;;;;;;;;;;;;;11.11;66.47754;102502.8;;;;-74
2023/03/27 15:23:42;;;;;;;;;;;;;;;11.12;66.34473;102501.4;;;;-74
2023/03/27 15:28:40;;;;;;;;;;;;;;;10.88;67.6543;102514.1;;;;-75
2023/03/27 15:33:45;;;;;;;;;;;;;;;10.78;66.50488;102509.9;;;;-74
2023/03/27 15:38:38;;;;;;;;;;;;;;;10.76;66.23535;102521;;;;-74
2023/03/27 15:43:37;;;;;;;;;;;;;;;10.7;66.85938;102524.1;;;;-74
2023/03/27 15:45:46;;;;;;;5;0.7;;;;;;;;;;;;;-74
2023/03/27 15:48:41;;;;;;;;;;;;;;;10.7;66.99316;102530.9;;;;-75
2023/03/27 15:53:38;;;;;;;;;;;;;;;10.38;66.42188;102535.9;;;;-75
2023/03/27 15:58:46;;;;;;;;;;;;;;;10.2;67.02734;102546.7;;;;-75
2023/03/27 16:03:37;;;;;;;;;;;;;;;10.1;67.40137;102540.3;;;;-75
2023/03/27 16:08:37;;;;;;;;;;;;;;;10.1;67.20215;102543.8;;;;-73
2023/03/27 16:13:40;;;;;;;;;;;;;;;10;67.85059;102553.4;;;;-75
2023/03/27 16:15:39;;;;;;;4.7;0.9;;;;;;;;;;;;;-74
2023/03/27 16:18:43;;;;;;;;;;;;;;;9.91;67.30371;102562.1;;;;-74
2023/03/27 16:23:36;;;;;;;;;;;;;;;9.88;67.34473;102567.8;;;;-75
2023/03/27 16:28:36;;;;;;;;;;;;;;;9.94;66.58887;102567.3;;;;-75
2023/03/27 16:33:36;;;;;;;;;;;;;;;9.9;68.08984;102569.4;;;;-74
2023/03/27 16:38:39;;;;;;;;;;;;;;;9.89;67.13477;102564.1;;;;-74
2023/03/27 16:43:36;;;;;;;;;;;;;;;9.86;67.1748;102567.9;;;;-74
2023/03/27 16:45:38;;;;;;;3.3;0.8;;;;;;;;;;;;;-74
2023/03/27 16:48:36;;;;;;;;;;;;;;;9.72;67.1748;102578.1;;;;-75
2023/03/27 16:53:36;;;;;;;;;;;;;;;9.54;67.60059;102582.7;;;;-74
2023/03/27 16:58:35;;;;;;;;;;;;;;;9.28;67.65137;102583.3;;;;-75
2023/03/27 17:03:36;;;;;;;;;;;;;;;9.08;66.35742;102599.6;;;;-74
2023/03/27 17:08:36;;;;;;;;;;;;;;;8.79;68.75684;102605.3;;;;-75
2023/03/27 17:13:36;;;;;;;;;;;;;;;8.62;69.56934;102608.1;;;;-75
2023/03/27 17:15:41;;;;;;;4.3;0.9;;;;;;;;;;;;;-73
2023/03/27 17:18:36;;;;;;;;;;;;;;;8.48;70.06836;102625.7;;;;-74
2023/03/27 17:23:40;;;;;;;;;;;;;;;8.29;71.29492;102630.6;;;;-74
2023/03/27 17:28:36;;;;;;;;;;;;;;;8.09;71.38281;102629.5;;;;-70
2023/03/27 17:33:36;;;;;;;;;;;;;;;7.89;70.91016;102627;;;;-72
2023/03/27 17:38:38;;;;;;;;;;;;;;;7.69;70.92188;102627.2;;;;-73
2023/03/27 17:43:37;;;;;;;;;;;;;;;7.5;71.03418;102630.1;;;;-73
2023/03/27 17:45:42;;;;;;;3.2;0.8;;;;;;;;;;;;;-74
2023/03/27 17:48:36;;;;;;;;;;;;;;;7.34;71.62402;102633.1;;;;-73
2023/03/27 17:53:36;;;;;;;;;;;;;;;7.16;71.69434;102659;;;;-72
2023/03/27 17:58:36;;;;;;;;;;;;;;;6.99;72.06152;102655.2;;;;-73
2023/03/27 18:03:36;;;;;;;;;;;;;;;6.83;72.68262;102653.1;;;;-74
2023/03/27 18:08:36;;;;;;;;;;;;;;;6.64;72.87207;102656.9;;;;-73
2023/03/27 18:13:36;;;;;;;;;;;;;;;6.51;73.3877;102666.9;;;;-74
2023/03/27 18:15:41;;;;;;;2.7;0.6;;;;;;;;;;;;;-72
2023/03/27 18:18:37;;;;;;;;;;;;;;;6.29;72.68066;102666.6;;;;-74
2023/03/27 18:23:37;;;;;;;;;;;;;;;6.09;73.02051;102671.6;;;;-73
2023/03/27 18:28:36;;;;;;;;;;;;;;;5.95;72.5918;102676.1;;;;-75
2023/03/27 18:33:36;;;;;;;;;;;;;;;5.78;73.24023;102678;;;;-74
2023/03/27 18:38:37;;;;;;;;;;;;;;;5.62;73.59863;102681.3;;;;-73
2023/03/27 18:43:37;;;;;;;;;;;;;;;5.46;73.24121;102686.2;;;;-73
2023/03/27 18:45:41;;;;;;;4;0.9;;;;;;;;;;;;;-74
2023/03/27 18:48:36;;;;;;;;;;;;;;;5.3;73.33594;102685.5;;;;-73
2023/03/27 18:53:36;;;;;;;;;;;;;;;5.16;73.21387;102693.2;;;;-72
2023/03/27 18:58:36;;;;;;;;;;;;;;;5.04;73.82715;102701.3;;;;-73
2023/03/27 19:03:37;;;;;;;;;;;;;;;4.97;74.5166;102701.6;;;;-73
2023/03/27 19:08:36;;;;;;;;;;;;;;;4.89;74.02148;102701.9;;;;-72
2023/03/27 19:13:38;;;;;;;;;;;;;;;4.79;74.18945;102706.1;;;;-73
2023/03/27 19:15:43;;;;;;;3.6;0.8;;;;;;;;;;;;;-73
2023/03/27 19:18:36;;;;;;;;;;;;;;;4.73;74.28809;102699.8;;;;-75
2023/03/27 19:23:39;;;;;;;;;;;;;;;4.63;74.57715;102698.9;;;;-75
2023/03/27 19:28:36;;;;;;;;;;;;;;;4.55;74.90137;102698.7;;;;-75
2023/03/27 19:33:36;;;;;;;;;;;;;;;4.43;74.72949;102699.8;;;;-74
2023/03/27 19:38:37;;;;;;;;;;;;;;;4.32;74.89551;102694.4;;;;-74
2023/03/27 19:43:36;;;;;;;;;;;;;;;4.24;75.25391;102691.9;;;;-72
2023/03/27 19:45:42;;;;;;;3.3;0.8;;;;;;;;;;;;;-75
2023/03/27 19:48:37;;;;;;;;;;;;;;;4.14;75.14746;102689.6;;;;-74
2023/03/27 19:53:36;;;;;;;;;;;;;;;4.03;74.98633;102689.8;;;;-75
2023/03/27 19:58:38;;;;;;;;;;;;;;;3.99;75.11133;102681.5;;;;-75
2023/03/27 20:03:36;;;;;;;;;;;;;;;3.9;75.83887;102681.5;;;;-75
2023/03/27 20:08:36;;;;;;;;;;;;;;;3.85;75.80762;102682.1;;;;-75
2023/03/27 20:13:39;;;;;;;;;;;;;;;3.74;75.64648;102690.8;;;;-74
2023/03/27 20:15:43;;;;;;;2.1;0.5;;;;;;;;;;;;;-74
2023/03/27 20:18:36;;;;;;;;;;;;;;;3.67;75.81836;102692;;;;-75
2023/03/27 20:23:36;;;;;;;;;;;;;;;3.65;76.15137;102698;;;;-76
2023/03/27 20:28:36;;;;;;;;;;;;;;;3.57;76.12793;102709.3;;;;-74
2023/03/27 20:33:38;;;;;;;;;;;;;;;3.52;76.31445;102705.3;;;;-75
2023/03/27 20:38:36;;;;;;;;;;;;;;;3.47;76.70801;102703.2;;;;-75
2023/03/27 20:43:40;;;;;;;;;;;;;;;3.41;75.94629;102704.4;;;;-75
2023/03/27 20:45:43;;;;;;;1.1;0.4;;;;;;;;;;;;;-73
2023/03/27 20:48:44;;;;;;;;;;;;;;;3.37;76.06934;102701.9;;;;-75
2023/03/27 20:53:38;;;;;;;;;;;;;;;3.28;76.0332;102698;;;;-74
2023/03/27 20:58:36;;;;;;;;;;;;;;;3.2;75.93164;102699;;;;-73
2023/03/27 21:03:36;;;;;;;;;;;;;;;3.16;76.28418;102700.1;;;;-75
2023/03/27 21:08:36;;;;;;;;;;;;;;;3.1;76.42578;102703.7;;;;-75
2023/03/27 21:13:37;;;;;;;;;;;;;;;3.02;76.27051;102704.7;;;;-75
2023/03/27 21:15:43;;;;;;;2.1;0.4;;;;;;;;;;;;;-75
2023/03/27 21:18:36;;;;;;;;;;;;;;;2.94;76.27637;102704.8;;;;-76
2023/03/27 21:23:38;;;;;;;;;;;;;;;2.86;76.52441;102705.3;;;;-75
2023/03/27 21:28:36;;;;;;;;;;;;;;;2.87;76.78711;102712.5;;;;-75
2023/03/27 21:33:36;;;;;;;;;;;;;;;2.74;76.42773;102716.1;;;;-74
2023/03/27 21:38:38;;;;;;;;;;;;;;;2.7;76.46484;102728.1;;;;-74
2023/03/27 21:43:36;;;;;;;;;;;;;;;2.6;76.57715;102724.9;;;;-76
2023/03/27 21:45:43;;;;;;;1.6;0.5;;;;;;;;;;;;;-75
2023/03/27 21:48:44;;;;;;;;;;;;;;;2.56;76.70996;102725.8;;;;-75
2023/03/27 21:53:36;;;;;;;;;;;;;;;2.49;76.77344;102726.1;;;;-74
2023/03/27 21:58:36;;;;;;;;;;;;;;;2.48;76.76074;102729;;;;-74
2023/03/27 22:03:40;;;;;;;;;;;;;;;2.37;76.73047;102736.1;;;;-75
2023/03/27 22:08:36;;;;;;;;;;;;;;;2.3;77.02148;102735.5;;;;-74
2023/03/27 22:13:36;;;;;;;;;;;;;;;2.24;76.77148;102734.7;;;;-77
2023/03/27 22:15:42;;;;;;;1.2;0.3;;;;;;;;;;;;;-75
2023/03/27 22:18:37;;;;;;;;;;;;;;;2.2;76.84277;102733.9;;;;-75
2023/03/27 22:23:38;;;;;;;;;;;;;;;2.15;76.7998;102730.5;;;;-75
2023/03/27 22:28:38;;;;;;;;;;;;;;;2.02;76.79688;102739;;;;-76
2023/03/27 22:33:36;;;;;;;;;;;;;;;2;77.25;102742.3;;;;-75
2023/03/27 22:38:38;;;;;;;;;;;;;;;1.89;76.87402;102751.2;;;;-74
2023/03/27 22:43:36;;;;;;;;;;;;;;;1.85;77.36523;102759.4;;;;-75
2023/03/27 22:45:42;;;;;;;3.3;0.5;;;;;;;;;;;;;-76
2023/03/27 22:48:36;;;;;;;;;;;;;;;1.84;77.16602;102761.4;;;;-76
2023/03/27 22:53:36;;;;;;;;;;;;;;;1.85;77.23633;102777.6;;;;-74
2023/03/27 22:58:36;;;;;;;;;;;;;;;1.9;77.24414;102778.5;;;;-75
2023/03/27 23:03:36;;;;;;;;;;;;;;;1.89;76.92676;102768;;;;-75
2023/03/27 23:08:36;;;;;;;;;;;;;;;1.93;76.78223;102761;;;;-75
2023/03/27 23:13:36;;;;;;;;;;;;;;;1.94;77.14063;102760;;;;-75
2023/03/27 23:19:43;;;;;;;;;;;;;;;1.95;77.17676;102763.7;;;;-75
2023/03/27 23:24:51;;;;;;;;;;;;;;;1.88;76.85938;102760.9;;;;-75
2023/03/27 23:29:40;;;;;;;;;;;;;;;1.85;76.95215;102753.8;;;;-75
2023/03/27 23:34:45;;;;;;;;;;;;;;;1.77;77.30664;102753.4;;;;-75
2023/03/27 23:39:40;;;;;;;;;;;;;;;1.69;77.24805;102754.7;;;;-75
2023/03/27 23:44:40;;;;;;;;;;;;;;;1.63;77.16309;102756.2;;;;-74
2023/03/27 23:45:54;;;;;;;1.3;0.5;;;;;;;;;;;;;-76
2023/03/27 23:49:41;;;;;;;;;;;;;;;1.57;77.50879;102754.4;;;;-75
2023/03/27 23:54:43;;;;;;;;;;;;;;;1.49;77.30957;102752.3;;;;-76
2023/03/27 23:59:40;;;;;;;;;;;;;;;1.48;77.63477;102757.5;;;;-74
